createdAt,value
2023-01-23T00:03:02.804Z,417.84615
2023-01-23T00:08:04.606Z,436.8
2023-01-23T00:13:06.448Z,448.91803
2023-01-23T00:18:08.473Z,461.64706
2023-01-23T00:23:10.220Z,457.33333
2023-01-23T00:28:12.293Z,407.15789
2023-01-23T00:33:14.054Z,384
2023-01-23T00:38:15.847Z,368.82759
2023-01-23T00:43:17.695Z,360.21622
2023-01-23T00:48:19.395Z,371.77778
2023-01-23T00:53:21.083Z,380.87943
2023-01-23T00:58:23.307Z,396.94118
2023-01-23T01:03:24.774Z,407.15789
2023-01-23T01:08:26.541Z,407.15789
2023-01-23T01:13:28.276Z,400.2963
2023-01-23T01:18:29.728Z,380.87943
2023-01-23T01:23:31.248Z,374.76923
2023-01-23T01:28:33.754Z,390.37681
2023-01-23T01:33:35.533Z,400.2963
2023-01-23T01:38:37.269Z,407.15789
2023-01-23T01:43:39.315Z,403.70149
2023-01-23T01:48:41.330Z,429.03937
2023-01-23T01:53:43.246Z,440.77419
2023-01-23T01:58:45.641Z,457.33333
2023-01-23T02:03:47.111Z,461.64706
2023-01-23T02:08:48.825Z,475.03448
2023-01-23T02:13:50.738Z,475.03448
2023-01-23T02:18:52.598Z,479.65217
2023-01-23T02:23:54.284Z,484.35088
2023-01-23T02:28:56.676Z,489.13274
2023-01-23T02:33:58.465Z,484.35088
2023-01-23T02:39:00.351Z,484.35088
2023-01-23T02:44:02.458Z,484.35088
2023-01-23T02:49:04.420Z,494
2023-01-23T02:54:06.346Z,484.35088
2023-01-23T02:59:08.722Z,470.49573
2023-01-23T03:04:10.530Z,470.49573
2023-01-23T03:09:12.255Z,489.13274
2023-01-23T03:14:14.139Z,498.95495
2023-01-23T03:19:16.056Z,489.13274
2023-01-23T03:24:17.705Z,479.65217
2023-01-23T03:29:20.555Z,475.03448
2023-01-23T03:34:22.448Z,470.49573
2023-01-23T03:39:24.259Z,484.35088
2023-01-23T03:44:25.798Z,479.65217
2023-01-23T03:49:27.396Z,475.03448
2023-01-23T03:54:28.983Z,484.35088
2023-01-23T03:59:30.751Z,479.65217
2023-01-23T04:04:32.211Z,489.13274
2023-01-23T04:09:33.902Z,489.13274
2023-01-23T04:14:35.541Z,484.35088
2023-01-23T04:19:37.121Z,489.13274
2023-01-23T04:24:38.960Z,479.65217
2023-01-23T04:29:40.746Z,484.35088
2023-01-23T04:34:42.201Z,484.35088
2023-01-23T04:39:43.740Z,470.49573
2023-01-23T04:44:45.488Z,466.0339
2023-01-23T04:49:47.365Z,466.0339
2023-01-23T04:54:48.992Z,453.09091
2023-01-23T04:59:50.822Z,457.33333
2023-01-23T05:04:52.679Z,453.09091
2023-01-23T05:09:54.152Z,444.81301
2023-01-23T05:14:55.766Z,421.51938
2023-01-23T05:19:57.523Z,425.25
2023-01-23T05:24:58.956Z,436.8
2023-01-23T05:30:01.065Z,432.88889
2023-01-23T05:35:02.672Z,440.77419
2023-01-23T05:40:04.251Z,417.84615
2023-01-23T05:45:05.962Z,432.88889
2023-01-23T05:50:07.417Z,417.84615
2023-01-23T05:55:08.958Z,407.15789
2023-01-23T06:00:10.620Z,400.2963
2023-01-23T06:05:12.151Z,414.22901
2023-01-23T06:10:13.887Z,475.03448
2023-01-23T06:15:15.608Z,470.49573
2023-01-23T06:20:17.667Z,400.2963
2023-01-23T06:25:19.654Z,479.65217
2023-01-23T06:30:22.825Z,504
2023-01-23T06:35:24.851Z,457.33333
2023-01-23T06:40:26.466Z,479.65217
2023-01-23T06:45:27.955Z,498.95495
2023-01-23T06:50:29.558Z,494
2023-01-23T06:55:30.990Z,509.13761
2023-01-23T07:00:32.801Z,489.13274
2023-01-23T07:05:34.294Z,530.66667
2023-01-23T07:10:35.763Z,519.70093
2023-01-23T07:15:39.078Z,525.13208
2023-01-23T07:20:42.105Z,560
2023-01-23T07:25:43.875Z,547.92157
2023-01-23T07:30:46.190Z,514.37037
2023-01-23T07:35:47.934Z,525.13208
2023-01-23T07:40:49.914Z,553.90099
2023-01-23T07:45:51.935Z,519.70093
2023-01-23T07:50:54.135Z,498.95495
2023-01-23T07:55:56.118Z,494
2023-01-23T08:00:58.233Z,525.13208
2023-01-23T08:06:00.338Z,498.95495
2023-01-23T08:11:02.441Z,509.13761
2023-01-23T08:16:04.762Z,504
2023-01-23T08:21:06.571Z,475.03448
2023-01-23T08:26:08.560Z,453.09091
2023-01-23T08:31:10.695Z,475.03448
2023-01-23T08:36:12.577Z,421.51938
2023-01-23T08:41:14.608Z,457.33333
2023-01-23T08:46:16.610Z,436.8
2023-01-23T08:51:18.418Z,448.91803
2023-01-23T08:56:20.273Z,440.77419
2023-01-23T09:01:22.615Z,440.77419
2023-01-23T09:06:24.473Z,440.77419
2023-01-23T09:11:26.394Z,448.91803
2023-01-23T09:16:28.218Z,479.65217
2023-01-23T09:21:30.009Z,470.49573
2023-01-23T09:26:31.461Z,475.03448
2023-01-23T09:31:33.261Z,509.13761
2023-01-23T09:36:42.989Z,579.05155
2023-01-23T09:41:45.124Z,592.42105
2023-01-23T09:46:46.909Z,579.05155
2023-01-23T09:51:49.022Z,620.92308
2023-01-23T09:56:50.723Z,660.27907
2023-01-23T10:01:52.742Z,628.44444
2023-01-23T10:06:54.448Z,644
2023-01-23T10:11:56.274Z,644
2023-01-23T10:16:58.108Z,660.27907
2023-01-23T10:21:59.870Z,668.70588
2023-01-23T10:27:01.708Z,695.21951
2023-01-23T10:32:03.747Z,652.04598
2023-01-23T10:37:05.474Z,704.49383
2023-01-23T10:42:07.507Z,644
2023-01-23T10:47:09.346Z,628.44444
2023-01-23T10:52:11.162Z,628.44444
2023-01-23T10:57:12.972Z,652.04598
2023-01-23T11:02:15.319Z,723.74684
2023-01-23T11:07:17.282Z,723.74684
2023-01-23T11:12:19.160Z,799.55556
2023-01-23T11:17:21.066Z,744
2023-01-23T11:22:23.112Z,744
2023-01-23T11:27:24.945Z,754.52632
2023-01-23T11:32:27.073Z,863.40299
2023-01-23T11:37:28.705Z,877.33333
2023-01-23T11:42:30.450Z,877.33333
2023-01-23T11:47:32.106Z,970.66667
2023-01-23T11:52:33.707Z,906.5
2023-01-23T11:57:35.429Z,988.0678
2023-01-23T12:02:38.466Z,970.66667
2023-01-23T12:07:40.768Z,891.69231
2023-01-23T12:12:42.448Z,953.83607
2023-01-23T12:17:44.192Z,988.0678
2023-01-23T12:22:45.645Z,953.83607
2023-01-23T12:27:47.152Z,1084.74074
2023-01-23T12:32:48.830Z,1024.70175
2023-01-23T12:37:50.309Z,1024.70175
2023-01-23T12:42:52.147Z,1044
2023-01-23T12:47:54.012Z,1006.06897
2023-01-23T12:52:55.919Z,1084.74074
2023-01-23T12:58:00.157Z,1006.06897
2023-01-23T13:03:11.608Z,970.66667
2023-01-23T13:08:14.270Z,1044
2023-01-23T13:13:16.152Z,1064
2023-01-23T13:18:18.108Z,937.54839
2023-01-23T13:23:19.957Z,970.66667
2023-01-23T13:28:22.232Z,1128.61538
2023-01-23T13:33:24.484Z,1044
2023-01-23T13:38:26.471Z,1128.61538
2023-01-23T13:43:28.082Z,1084.74074
2023-01-23T14:31:37.632Z,970.66667
2023-01-23T14:36:39.596Z,921.77778
2023-01-23T14:41:43.758Z,891.69231
2023-01-23T14:46:46.786Z,953.83607
2023-01-23T14:51:48.756Z,1006.06897
2023-01-23T14:56:50.544Z,953.83607
2023-01-23T15:01:52.636Z,937.54839
2023-01-23T15:06:54.636Z,988.0678
2023-01-23T15:11:57.544Z,906.5
2023-01-23T15:16:59.641Z,970.66667
2023-01-23T15:22:01.482Z,970.66667
2023-01-23T15:27:03.365Z,1044
2023-01-23T15:32:05.328Z,1106.26415
2023-01-23T15:37:07.243Z,1006.06897
2023-01-23T15:42:09.227Z,988.0678
2023-01-23T15:47:11.035Z,1024.70175
2023-01-23T15:52:13.114Z,953.83607
2023-01-23T15:57:15.045Z,906.5
2023-01-23T16:02:29.598Z,836.75362
2023-01-23T16:07:32.516Z,891.69231
2023-01-23T16:12:34.333Z,824
2023-01-23T16:17:36.090Z,849.88235
2023-01-23T16:22:37.953Z,849.88235
2023-01-23T16:27:39.780Z,799.55556
2023-01-23T16:32:41.708Z,723.74684
2023-01-23T16:37:43.931Z,733.74359
2023-01-23T16:42:46.051Z,765.33333
2023-01-23T16:47:47.851Z,776.43243
2023-01-23T16:52:49.755Z,733.74359
2023-01-23T16:57:51.525Z,714
2023-01-23T17:02:53.449Z,677.33333
2023-01-23T17:07:55.041Z,628.44444
2023-01-23T17:12:56.773Z,652.04598
2023-01-23T17:17:58.481Z,620.92308
2023-01-23T17:23:00.287Z,585.66667
2023-01-23T17:28:12.208Z,566.22222
2023-01-23T17:33:14.735Z,553.90099
2023-01-23T17:38:16.450Z,536.30769
2023-01-23T17:43:18.095Z,519.70093
2023-01-23T17:48:19.832Z,536.30769
2023-01-23T17:53:21.705Z,514.37037
2023-01-23T17:58:23.297Z,525.13208
2023-01-23T18:03:25.566Z,509.13761
2023-01-23T18:08:27.397Z,504
2023-01-23T18:13:29.298Z,475.03448
2023-01-23T18:18:30.816Z,461.64706
2023-01-23T18:23:32.333Z,457.33333
2023-01-23T18:28:33.920Z,470.49573
2023-01-23T18:33:35.554Z,479.65217
2023-01-23T18:38:37.067Z,504
2023-01-23T18:43:38.786Z,498.95495
2023-01-23T18:48:40.630Z,504
2023-01-23T18:53:42.380Z,498.95495
2023-01-23T18:58:44.096Z,494
2023-01-23T19:03:45.779Z,504
2023-01-23T19:08:47.345Z,509.13761
2023-01-23T19:13:49.004Z,489.13274
2023-01-23T19:18:50.633Z,479.65217
2023-01-23T19:23:52.315Z,479.65217
2023-01-23T19:28:53.842Z,479.65217
2023-01-23T19:33:56.006Z,479.65217
2023-01-23T19:38:57.479Z,461.64706
2023-01-23T19:43:59.463Z,461.64706
2023-01-23T19:49:02.963Z,461.64706
2023-01-23T19:54:05.432Z,457.33333
2023-01-23T19:59:07.262Z,453.09091
2023-01-23T20:04:09.341Z,453.09091
2023-01-23T20:09:11.308Z,417.84615
2023-01-23T20:14:13.337Z,393.63504
2023-01-23T20:19:15.336Z,396.94118
2023-01-23T20:24:17.306Z,403.70149
2023-01-23T20:29:19.289Z,396.94118
2023-01-23T20:34:21.447Z,400.2963
2023-01-23T20:39:23.365Z,390.37681
2023-01-23T20:44:26.144Z,390.37681
2023-01-23T20:49:28.132Z,396.94118
2023-01-23T20:54:30.084Z,396.94118
2023-01-23T20:59:31.758Z,377.80282
2023-01-23T21:04:33.514Z,371.77778
2023-01-23T21:09:35.201Z,360.21622
2023-01-23T21:14:37.075Z,354.66667
2023-01-23T21:19:38.566Z,368.82759
2023-01-23T21:24:40.257Z,390.37681
2023-01-23T21:29:41.716Z,403.70149
2023-01-23T21:34:43.370Z,425.25
2023-01-23T21:39:44.861Z,444.81301
2023-01-23T21:44:46.512Z,448.91803
2023-01-23T21:49:48.428Z,453.09091
2023-01-23T21:54:50.036Z,457.33333
2023-01-23T21:59:52.082Z,453.09091
2023-01-23T22:04:54.210Z,444.81301
2023-01-23T22:09:56.043Z,432.88889
2023-01-23T22:14:58.440Z,432.88889
2023-01-23T22:20:00.373Z,436.8
2023-01-23T22:25:02.442Z,436.8
2023-01-23T22:30:04.401Z,432.88889
2023-01-23T22:35:06.289Z,436.8
2023-01-23T22:40:08.088Z,440.77419
2023-01-23T22:45:10.526Z,436.8
2023-01-23T22:50:12.354Z,444.81301
2023-01-23T22:55:14.276Z,444.81301
2023-01-23T23:00:16.097Z,440.77419
2023-01-23T23:05:18.319Z,436.8
2023-01-23T23:10:20.152Z,432.88889
2023-01-23T23:15:22.503Z,429.03937
2023-01-23T23:20:24.654Z,440.77419
2023-01-23T23:25:26.596Z,448.91803
2023-01-23T23:30:28.388Z,444.81301
2023-01-23T23:35:30.345Z,440.77419
2023-01-23T23:40:31.842Z,440.77419
2023-01-23T23:45:33.687Z,444.81301
2023-01-23T23:50:35.803Z,440.77419
2023-01-23T23:55:37.234Z,425.25
